CXA8133 ZGHA-ZBTJ
Flight info
| Callsign | CXA8133 |
|---|---|
| Flight time | N/A |
| Altitude | 31100 |
| Route | GUD9W GUDRO W56 GUVRI W85 OMDEK OMDEK5R |
| Aircraft | B38M/M-SDE1FGHILORVWXY/HB1 |
Departure
| Time | 2026-04-24 13:17 |
|---|---|
| Airport | Changsha Huanghua International Airport (ZGHA) |
Arrival
| Time | N/A |
|---|---|
| Airport | Tianjin Binhai International Airport (ZBTJ) |
| Time | Latitude | Longitude | Altitude | Speed | Heading |
|---|---|---|---|---|---|
| 2026-04-24 13:04 | 28.18260 | 113.21711 | 216 ft | 0 kts | 267° |
| 2026-04-24 13:05 | 28.18260 | 113.21715 | 220 ft | 3 kts | 267° |
| 2026-04-24 13:05 | 28.18261 | 113.21746 | 216 ft | 4 kts | 267° |
| 2026-04-24 13:06 | 28.18261 | 113.21771 | 216 ft | 4 kts | 277° |
| 2026-04-24 13:06 | 28.18253 | 113.21799 | 219 ft | 4 kts | 304° |
| 2026-04-24 13:06 | 28.18235 | 113.21820 | 220 ft | 4 kts | 327° |
| 2026-04-24 13:06 | 28.18211 | 113.21832 | 216 ft | 4 kts | 348° |
| 2026-04-24 13:07 | 28.18200 | 113.21834 | 218 ft | 1 kts | 357° |
| 2026-04-24 13:08 | 28.18207 | 113.21834 | 221 ft | 2 kts | 357° |
| 2026-04-24 13:09 | 28.18266 | 113.21830 | 220 ft | 7 kts | 357° |
| 2026-04-24 13:09 | 28.18324 | 113.21826 | 220 ft | 10 kts | 357° |
| 2026-04-24 13:09 | 28.18404 | 113.21821 | 216 ft | 13 kts | 356° |
| 2026-04-24 13:09 | 28.18504 | 113.21815 | 216 ft | 16 kts | 356° |
| 2026-04-24 13:10 | 28.18621 | 113.21807 | 216 ft | 18 kts | 356° |
| 2026-04-24 13:10 | 28.18758 | 113.21799 | 221 ft | 21 kts | 357° |
| 2026-04-24 13:10 | 28.18912 | 113.21789 | 216 ft | 24 kts | 356° |
| 2026-04-24 13:10 | 28.19081 | 113.21778 | 217 ft | 26 kts | 357° |
| 2026-04-24 13:11 | 28.19269 | 113.21767 | 217 ft | 28 kts | 356° |
| 2026-04-24 13:11 | 28.19474 | 113.21755 | 220 ft | 31 kts | 357° |
| 2026-04-24 13:11 | 28.19664 | 113.21743 | 217 ft | 27 kts | 356° |
| 2026-04-24 13:11 | 28.19842 | 113.21731 | 216 ft | 24 kts | 356° |
| 2026-04-24 13:12 | 28.20016 | 113.21721 | 216 ft | 26 kts | 357° |
| 2026-04-24 13:12 | 28.20200 | 113.21710 | 216 ft | 26 kts | 357° |
| 2026-04-24 13:12 | 28.20376 | 113.21699 | 218 ft | 24 kts | 356° |
| 2026-04-24 13:12 | 28.20525 | 113.21690 | 217 ft | 15 kts | 356° |
| 2026-04-24 13:13 | 28.20567 | 113.21688 | 219 ft | 0 kts | 6° |
| 2026-04-24 13:13 | 28.20568 | 113.21688 | 219 ft | 1 kts | 6° |
| 2026-04-24 13:13 | 28.20579 | 113.21691 | 224 ft | 3 kts | 15° |
| 2026-04-24 13:14 | 28.20597 | 113.21706 | 218 ft | 4 kts | 53° |
| 2026-04-24 13:14 | 28.20603 | 113.21739 | 217 ft | 5 kts | 85° |
| 2026-04-24 13:14 | 28.20604 | 113.21752 | 222 ft | 0 kts | 86° |
| 2026-04-24 13:15 | 28.20604 | 113.21757 | 221 ft | 1 kts | 86° |
| 2026-04-24 13:15 | 28.20605 | 113.21771 | 222 ft | 2 kts | 86° |
| 2026-04-24 13:15 | 28.20606 | 113.21794 | 218 ft | 4 kts | 89° |
| 2026-04-24 13:15 | 28.20601 | 113.21840 | 222 ft | 9 kts | 105° |
| 2026-04-24 13:16 | 28.20542 | 113.21879 | 220 ft | 7 kts | 177° |
| 2026-04-24 13:16 | 28.20538 | 113.21880 | 222 ft | 0 kts | 177° |
| 2026-04-24 13:16 | 28.20537 | 113.21880 | 222 ft | 1 kts | 177° |
| 2026-04-24 13:17 | 28.20463 | 113.21883 | 222 ft | 35 kts | 178° |
| 2026-04-24 13:17 | 28.19952 | 113.21913 | 220 ft | 112 kts | 177° |
| 2026-04-24 13:17 | 28.18949 | 113.21976 | 257 ft | 170 kts | 177° |
| 2026-04-24 13:17 | 28.17702 | 113.22059 | 841 ft | 187 kts | 177° |
| 2026-04-24 13:18 | 28.16375 | 113.22149 | 1640 ft | 197 kts | 176° |
| 2026-04-24 13:18 | 28.14953 | 113.22236 | 2333 ft | 217 kts | 177° |
| 2026-04-24 13:18 | 28.13429 | 113.22307 | 3341 ft | 221 kts | 178° |
| 2026-04-24 13:18 | 28.11865 | 113.22371 | 4295 ft | 228 kts | 178° |
| 2026-04-24 13:19 | 28.10436 | 113.22432 | 5208 ft | 233 kts | 177° |
| 2026-04-24 13:19 | 28.08764 | 113.22527 | 6053 ft | 243 kts | 176° |
| 2026-04-24 13:19 | 28.07069 | 113.22657 | 7065 ft | 244 kts | 176° |
| 2026-04-24 13:19 | 28.05377 | 113.22783 | 8043 ft | 246 kts | 176° |
| 2026-04-24 13:20 | 28.03629 | 113.22903 | 8803 ft | 259 kts | 177° |
| 2026-04-24 13:20 | 28.01773 | 113.23051 | 9441 ft | 276 kts | 172° |
| 2026-04-24 13:20 | 27.99990 | 113.23900 | 10196 ft | 286 kts | 140° |
| 2026-04-24 13:20 | 27.98769 | 113.25701 | 10780 ft | 297 kts | 109° |
| 2026-04-24 13:21 | 27.98444 | 113.28019 | 11491 ft | 305 kts | 86° |
| 2026-04-24 13:21 | 27.98493 | 113.30454 | 12239 ft | 312 kts | 89° |
| 2026-04-24 13:21 | 27.98499 | 113.32924 | 13103 ft | 317 kts | 89° |
| 2026-04-24 13:21 | 27.98502 | 113.35451 | 13894 ft | 324 kts | 90° |
| 2026-04-24 13:22 | 27.98728 | 113.37995 | 14598 ft | 328 kts | 70° |
| 2026-04-24 13:22 | 27.99894 | 113.40121 | 15321 ft | 325 kts | 40° |
| 2026-04-24 13:22 | 28.01794 | 113.41484 | 15981 ft | 325 kts | 23° |
| 2026-04-24 13:22 | 28.03784 | 113.42759 | 16716 ft | 330 kts | 28° |
| 2026-04-24 13:23 | 28.05772 | 113.44096 | 17433 ft | 334 kts | 24° |
| 2026-04-24 13:23 | 28.07980 | 113.44953 | 17774 ft | 342 kts | 4° |
| 2026-04-24 13:23 | 28.10403 | 113.45211 | 17989 ft | 359 kts | 1° |